Accueil
METAR-TAF:

METAR-TAF

Aéroports :

Monroe, Caroline du Nord, États-Unis

latitude: 35-01-01N, longitude: 080-37-14W, altitude: 207 m

Observation

Le bulletin a été fait il y a 20 minutes, à 19:53 UTC
Vent 13 kt de ouest/sud-ouest
Température 15°C
Humidité 29%
Pression 1023 hPa
Visibilité: 16.1 km
Quelques nuages à une hauteur de 10000 ft

METAR: KEQY 191953Z AUTO 25013KT 10SM FEW100 15/M03 A3021 RMK AO2 SLP247 T01501028

Heure: 15:13 (20:13 UTC)


TAF: absent

Observations et prévisions météorologiques de plus de 4000 aéroports (messages METAR et TAF).

Les stations disponibles sont représentées par des disques jaunes et rouges sur la carte.

Passer la souris dessus pour voir le nom de la station.

Cliquer dessus pour voir les observations et prévisions météorologiques.

Pour changer de carte: cliquez sur les boutons verts avec une croix noire pour zoomer, sur le bouton vert avec un tiret pour effectuer un zoom arrière, ou sur les flèches vertes pour les cartes adjacentes.


METAR-TAF: